createdAt,value
2018-10-02T00:00:11.531Z,0.83
2018-10-02T00:25:02.139Z,1.10
2018-10-02T00:27:49.586Z,1.03
2018-10-02T00:33:43.259Z,0.90
2018-10-02T00:36:30.861Z,1.10
2018-10-02T00:39:19.331Z,1.50
2018-10-02T00:42:09.984Z,1.47
2018-10-02T00:44:57.604Z,1.10
2018-10-02T00:47:54.475Z,1.07
2018-10-02T00:50:42.890Z,1.10
2018-10-02T00:56:37.332Z,0.97
2018-10-02T00:59:27.352Z,1.20
2018-10-02T01:02:15.944Z,1.97
2018-10-02T01:20:38.312Z,1.33
2018-10-02T01:29:57.650Z,1.70
2018-10-02T01:42:05.761Z,1.53
2018-10-02T01:44:55.619Z,2.23
2018-10-02T01:47:47.325Z,1.77
2018-10-02T01:50:36.222Z,1.90
2018-10-02T01:53:24.041Z,1.80
2018-10-02T02:02:27.642Z,1.63
2018-10-02T02:05:15.207Z,1.83
2018-10-02T02:08:02.790Z,1.70
2018-10-02T02:10:50.403Z,1.73
2018-10-02T02:13:37.562Z,1.60
2018-10-02T02:16:28.602Z,2.30
2018-10-02T02:37:55.415Z,1.80
2018-10-02T02:46:56.745Z,2.20
2018-10-02T02:49:47.160Z,2.30
2018-10-02T02:58:47.292Z,3.72
2018-10-02T03:20:14.317Z,3.00
2018-10-02T03:23:01.880Z,2.93
2018-10-02T03:25:49.968Z,2.50
2018-10-02T03:28:37.379Z,2.50
2018-10-02T03:31:25.761Z,3.78
2018-10-02T03:34:13.892Z,3.00
2018-10-02T03:58:45.091Z,4.00
2018-10-02T04:01:32.681Z,3.70
2018-10-02T04:04:21.090Z,3.60
2018-10-02T04:07:11.928Z,3.43
2018-10-02T04:13:05.814Z,4.33
2018-10-02T05:05:03.235Z,3.13
2018-10-02T05:11:05.551Z,2.97
2018-10-02T05:13:56.326Z,2.90
2018-10-02T06:44:29.209Z,3.17
2018-10-02T06:57:02.861Z,3.57
2018-10-02T07:06:04.233Z,4.03
2018-10-02T07:08:54.986Z,3.13
2018-10-02T07:11:46.295Z,3.63
2018-10-02T07:27:21.260Z,4.12
2018-10-02T07:30:10.071Z,3.78
2018-10-02T07:33:01.025Z,3.00
2018-10-02T07:35:49.152Z,3.10
2018-10-02T07:38:36.965Z,3.10
2018-10-02T07:44:31.059Z,3.00
2018-10-02T07:47:21.396Z,2.73
2018-10-02T07:50:09.726Z,2.87
2018-10-02T07:52:59.503Z,3.07
2018-10-02T08:14:27.398Z,2.35
2018-10-02T08:17:28.408Z,2.20
2018-10-02T08:26:46.900Z,2.10
2018-10-02T08:29:34.676Z,2.00
2018-10-02T08:32:24.553Z,1.93
2018-10-02T08:41:26.822Z,1.87
2018-10-02T08:47:24.304Z,2.00
2018-10-02T08:56:26.062Z,1.85
2018-10-02T09:02:28.010Z,2.00
2018-10-02T09:05:15.542Z,2.90
2018-10-02T09:14:25.439Z,2.12
2018-10-02T09:29:41.113Z,3.67
2018-10-02T09:55:24.094Z,4.35
2018-10-02T09:58:16.362Z,4.60
2018-10-02T10:01:06.021Z,4.80
2018-10-02T10:06:59.419Z,4.78
2018-10-02T10:09:46.711Z,4.03
2018-10-02T10:15:43.517Z,4.30
2018-10-02T10:18:33.567Z,4.55
2018-10-02T10:27:45.778Z,3.00
2018-10-02T10:30:42.942Z,3.50
2018-10-02T10:36:42.404Z,3.25
2018-10-02T10:39:29.846Z,2.75
2018-10-02T10:42:17.610Z,2.70
2018-10-02T10:54:31.941Z,2.60
2018-10-02T11:25:24.902Z,1.85
2018-10-02T11:28:12.747Z,2.15
2018-10-02T11:31:00.340Z,2.90
2018-10-02T11:43:25.647Z,1.87
2018-10-02T11:46:15.943Z,2.17
2018-10-02T11:55:17.412Z,1.92
2018-10-02T12:01:15.167Z,2.20
2018-10-02T12:10:17.485Z,2.17
2018-10-02T12:28:37.073Z,1.73
2018-10-02T12:31:28.290Z,1.60
2018-10-02T12:34:34.682Z,1.90
2018-10-02T12:37:24.338Z,1.20
2018-10-02T12:40:11.782Z,0.80
2018-10-02T12:45:48.578Z,0.77
2018-10-02T13:07:17.212Z,0.82
2018-10-02T13:10:04.760Z,1.00
2018-10-02T13:13:03.297Z,1.47
2018-10-02T13:15:50.901Z,1.08
2018-10-02T13:18:38.327Z,1.12
2018-10-02T13:21:25.890Z,1.02
2018-10-02T13:27:24.579Z,1.10
2018-10-02T13:30:15.262Z,1.12
2018-10-02T13:33:08.188Z,1.15
2018-10-02T13:36:02.571Z,1.00
2018-10-02T13:38:51.227Z,1.15
2018-10-02T13:41:38.449Z,0.80
2018-10-02T13:44:27.418Z,1.05
2018-10-02T13:47:15.264Z,1.20
2018-10-02T13:53:22.185Z,1.10
2018-10-02T13:56:09.664Z,1.10
2018-10-02T14:02:04.939Z,1.37
2018-10-02T14:04:59.649Z,0.77
2018-10-02T14:10:54.676Z,1.02
2018-10-02T14:13:44.086Z,0.80
2018-10-02T14:16:32.485Z,0.90
2018-10-02T14:19:19.940Z,1.13
2018-10-02T14:22:08.563Z,1.00
2018-10-02T14:25:12.315Z,1.10
2018-10-02T14:34:12.654Z,1.40
2018-10-02T14:37:00.500Z,1.17
2018-10-02T14:39:49.170Z,1.70
2018-10-02T14:45:43.239Z,1.20
2018-10-02T14:48:30.940Z,1.20
2018-10-02T14:51:18.133Z,1.27
2018-10-02T14:54:21.116Z,1.65
2018-10-02T14:57:08.633Z,1.23
2018-10-02T15:09:15.288Z,1.00
2018-10-02T15:12:02.487Z,0.97
2018-10-02T15:36:35.489Z,0.87
2018-10-02T15:39:22.581Z,0.83
2018-10-02T15:42:09.968Z,0.80
2018-10-02T15:44:57.180Z,1.10
2018-10-02T15:50:50.381Z,0.90
2018-10-02T16:09:10.646Z,0.60
2018-10-02T16:24:30.082Z,0.50
2018-10-02T16:27:17.259Z,0.53
2018-10-02T16:54:58.447Z,0.70
2018-10-02T16:57:45.981Z,0.57
2018-10-02T17:00:33.530Z,0.50
2018-10-02T17:03:20.749Z,0.70
2018-10-02T17:06:07.755Z,0.40
2018-10-02T17:12:01.132Z,0.55
2018-10-02T17:14:49.868Z,0.70
2018-10-02T17:17:37.730Z,0.50
2018-10-02T17:20:26.631Z,0.60
2018-10-02T17:23:13.583Z,0.60
2018-10-02T17:26:00.959Z,0.53
2018-10-02T17:28:48.825Z,0.60
2018-10-02T17:31:44.175Z,0.67
2018-10-02T17:34:32.757Z,0.52
2018-10-02T17:37:20.349Z,0.50
2018-10-02T17:40:08.493Z,0.30
2018-10-02T17:42:56.016Z,0.60
2018-10-02T17:45:44.458Z,0.50
2018-10-02T17:48:31.960Z,0.50
2018-10-02T17:51:19.210Z,0.80
2018-10-02T17:54:06.653Z,0.70
2018-10-02T17:56:57.814Z,0.70
2018-10-02T17:59:47.198Z,0.60
2018-10-02T18:02:35.553Z,0.60
2018-10-02T18:05:26.092Z,0.70
2018-10-02T18:08:13.436Z,0.60
2018-10-02T18:11:00.757Z,0.63
2018-10-02T18:13:59.793Z,0.70
2018-10-02T18:16:48.442Z,0.67
2018-10-02T18:25:58.027Z,0.70
2018-10-02T18:28:47.149Z,1.00
2018-10-02T18:31:36.840Z,0.73
2018-10-02T18:34:26.753Z,1.10
2018-10-02T18:37:13.970Z,0.90
2018-10-02T18:40:01.769Z,0.80
2018-10-02T18:42:50.871Z,1.37
2018-10-02T18:45:43.178Z,1.33
2018-10-02T18:48:35.851Z,1.40
2018-10-02T18:54:34.321Z,1.50
2018-10-02T18:57:26.179Z,1.40
2018-10-02T19:00:16.153Z,1.47
2018-10-02T19:03:08.851Z,1.70
2018-10-02T19:05:57.859Z,2.00
2018-10-02T19:12:07.803Z,1.80
2018-10-02T19:14:56.686Z,1.83
2018-10-02T19:17:50.263Z,2.10
2018-10-02T19:20:37.978Z,2.50
2018-10-02T19:23:25.971Z,2.40
2018-10-02T19:26:15.595Z,2.33
2018-10-02T19:29:04.155Z,2.20
2018-10-02T19:31:51.588Z,2.90
2018-10-02T19:34:44.387Z,2.70
2018-10-02T19:37:31.923Z,2.40
2018-10-02T19:40:19.867Z,2.67
2018-10-02T19:43:07.473Z,3.20
2018-10-02T19:45:54.754Z,3.03
2018-10-02T19:48:42.212Z,3.37
2018-10-02T19:51:29.945Z,2.90
2018-10-02T19:54:17.213Z,3.03
2018-10-02T19:57:05.405Z,3.20
2018-10-02T19:59:52.765Z,3.03
2018-10-02T20:02:40.656Z,4.60
2018-10-02T20:05:28.343Z,3.73
2018-10-02T20:08:16.262Z,3.77
2018-10-02T20:11:04.508Z,4.43
2018-10-02T20:13:52.717Z,4.67
2018-10-02T20:16:40.804Z,5.20
2018-10-02T20:19:28.739Z,4.50
2018-10-02T20:22:17.081Z,4.83
2018-10-02T20:25:05.039Z,5.00
2018-10-02T20:27:52.920Z,4.50
2018-10-02T20:30:41.154Z,4.40
2018-10-02T20:33:28.872Z,4.23
2018-10-02T20:36:19.196Z,5.22
2018-10-02T20:39:08.636Z,4.10
2018-10-02T20:41:56.391Z,4.47
2018-10-02T20:44:43.828Z,4.23
2018-10-02T20:47:33.080Z,4.00
2018-10-02T20:50:26.777Z,4.47
2018-10-02T20:53:17.480Z,4.20
2018-10-02T20:56:06.215Z,4.80
2018-10-02T20:58:53.949Z,5.57
2018-10-02T21:01:44.339Z,5.82
2018-10-02T21:04:36.894Z,5.60
2018-10-02T21:07:30.126Z,5.90
2018-10-02T21:10:18.055Z,5.60
2018-10-02T21:16:23.014Z,4.70
2018-10-02T21:19:13.868Z,5.03
2018-10-02T21:22:04.789Z,4.77
2018-10-02T21:24:52.777Z,4.77
2018-10-02T21:27:43.566Z,5.00
2018-10-02T21:33:34.784Z,5.73
2018-10-02T21:36:22.567Z,5.20
2018-10-02T21:39:10.448Z,5.33
2018-10-02T21:42:01.103Z,5.33
2018-10-02T21:44:49.556Z,5.47
2018-10-02T21:47:37.420Z,5.60
2018-10-02T21:50:25.524Z,5.87
2018-10-02T21:53:13.050Z,7.07
2018-10-02T21:56:01.169Z,5.87
2018-10-02T21:58:49.752Z,4.80
2018-10-02T22:01:40.519Z,6.30
2018-10-02T22:04:28.379Z,5.73
2018-10-02T22:07:16.128Z,5.40
2018-10-02T22:10:04.254Z,4.97
2018-10-02T22:12:52.307Z,5.33
2018-10-02T22:15:40.127Z,6.32
2018-10-02T22:18:29.147Z,5.60
2018-10-02T22:21:17.240Z,5.07
2018-10-02T22:24:08.602Z,5.80
2018-10-02T22:26:56.753Z,6.60
2018-10-02T22:32:56.794Z,5.27
2018-10-02T22:35:44.267Z,5.30
2018-10-02T22:38:32.841Z,5.03
2018-10-02T22:41:21.273Z,5.18
2018-10-02T22:44:08.454Z,4.40
2018-10-02T22:46:56.925Z,4.50
2018-10-02T22:49:44.591Z,4.80
2018-10-02T22:52:32.301Z,4.80
2018-10-02T22:55:20.423Z,4.40
2018-10-02T22:58:08.446Z,4.67
2018-10-02T23:00:56.206Z,5.40
2018-10-02T23:03:47.493Z,4.40
2018-10-02T23:06:35.459Z,4.67
2018-10-02T23:09:23.929Z,4.10
2018-10-02T23:12:12.012Z,4.23
2018-10-02T23:15:08.343Z,4.10
2018-10-02T23:17:56.186Z,4.57
2018-10-02T23:20:52.021Z,4.10
2018-10-02T23:23:40.384Z,4.23
2018-10-02T23:26:31.008Z,3.70
2018-10-02T23:29:18.963Z,4.30
2018-10-02T23:32:06.462Z,4.70
2018-10-02T23:34:54.287Z,4.43
2018-10-02T23:37:42.389Z,5.35
2018-10-02T23:40:30.485Z,5.20
2018-10-02T23:43:18.907Z,5.10
2018-10-02T23:46:07.417Z,4.87
2018-10-02T23:48:55.133Z,5.20
2018-10-02T23:51:42.980Z,5.13
2018-10-02T23:54:31.532Z,5.17
2018-10-02T23:57:19.659Z,4.67
